Pedra Preta, Brazil
Current Conditions -  °F | °C
As of 7:00 PM on Monday 26 Jan 2015 (Local Time) from SBCY Reporting Station
Rain Showers Rain Showers  
Wind Chill: 81°   Ceiling: 10000
Heat Index: 85°   Visibility: 6mi
Dew Point: 72°   Wind: 9mph
Humidity: 74%   Direction: 20°NNE
Pressure: 29.8"   Gusts: NA
Location:  16.62°S, 54.47°W
Report Text: SBCY 262200Z 02008KT 9999 VCSH FEW020 BKN100 27/22 Q1009
Loading
Personal Weather Stations






























Interactive Weather Map New forecast layout! Learn more

10-Day Weather Forecast

Advertisements
Track Severe Weather on mobile